Time;durP1;ratioP1;P1;durP2;ratioP2;P2;SDS_P1;SDS_P2;PMS_P1;PMS_P2;Temp;Humidity;BMP_temperature;BMP_pressure;BME280_temperature;BME280_humidity;BME280_pressure;Samples;Min_cycle;Max_cycle;Signal;HPM_P1;HPM_P2
2022/08/09 00:00:15;;;;;;;5.97;4.97;;;;;;;;;;10066400;28;20112;-62
2022/08/09 00:05:09;;;;;;;6.35;5.75;;;;;;;;;;10066423;28;20049;-61
2022/08/09 00:10:23;;;;;;;6.88;5.75;;;;;;;;;;10066039;28;20053;-61
2022/08/09 00:15:18;;;;;;;7.63;5.05;;;;;;;;;;10060683;28;20065;-59
2022/08/09 00:20:27;;;;;;;6.70;5.45;;;;;;;;;;10046057;28;20413;-62
2022/08/09 00:25:26;;;;;;;7.45;5.72;;;;;;;;;;10056524;28;20177;-61
2022/08/09 00:30:25;;;;;;;6.13;5.53;;;;;;;;;;10055104;28;20046;-62
2022/08/09 00:35:19;;;;;;;8.98;6.43;;;;;;;;;;10054089;28;20077;-61
2022/08/09 00:40:14;;;;;;;9.13;8.27;;;;;;;;;;10041316;28;20124;-62
2022/08/09 00:45:08;;;;;;;11.23;9.07;;;;;;;;;;10058786;28;20050;-62
2022/08/09 00:50:08;;;;;;;10.05;9.15;;;;;;;;;;10049793;28;20136;-61
2022/08/09 00:55:08;;;;;;;11.57;9.60;;;;;;;;;;10046839;28;20069;-61
2022/08/09 01:00:22;;;;;;;13.32;11.02;;;;;;;;;;10053362;28;20077;-61
2022/08/09 01:05:33;;;;;;;11.15;10.10;;;;;;;;;;10052491;28;20047;-62
2022/08/09 01:11:04;;;;;;;11.15;10.25;;;;;;;;;;10056470;28;20049;-62
2022/08/09 01:16:00;;;;;;;10.52;9.63;;;;;;;;;;10056241;28;20073;-61
2022/08/09 01:21:12;;;;;;;11.70;9.68;;;;;;;;;;10057022;28;20054;-62
2022/08/09 01:26:36;;;;;;;10.95;9.60;;;;;;;;;;10062750;28;20109;-61
2022/08/09 01:31:30;;;;;;;11.05;9.95;;;;;;;;;;10065512;28;20060;-61
2022/08/09 01:36:45;;;;;;;10.70;9.65;;;;;;;;;;10060797;28;20052;-62
2022/08/09 01:41:40;;;;;;;10.45;9.45;;;;;;;;;;10058686;28;20409;-61
2022/08/09 01:46:48;;;;;;;9.70;8.57;;;;;;;;;;10053712;28;20128;-62
2022/08/09 01:52:02;;;;;;;9.30;8.40;;;;;;;;;;10045759;28;20070;-62
2022/08/09 01:57:05;;;;;;;10.55;8.80;;;;;;;;;;10055397;28;20053;-62
2022/08/09 02:02:01;;;;;;;9.65;8.75;;;;;;;;;;10055553;28;20060;-62
2022/08/09 02:07:14;;;;;;;11.80;8.52;;;;;;;;;;10057789;28;20055;-62
2022/08/09 02:12:28;;;;;;;11.20;10.20;;;;;;;;;;10053708;28;20561;-61
2022/08/09 02:17:26;;;;;;;11.05;10.15;;;;;;;;;;10050990;28;20053;-62
2022/08/09 02:23:06;;;;;;;11.52;10.43;;;;;;;;;;10053655;28;20042;-61
2022/08/09 02:28:25;;;;;;;13.45;11.73;;;;;;;;;;10055373;28;20045;-61
2022/08/09 02:33:24;;;;;;;12.77;10.93;;;;;;;;;;10061429;28;20056;-60
2022/08/09 02:38:41;;;;;;;;;;;;;;;;;;10054518;28;20050;-61
2022/08/09 02:43:41;;;;;;;10.95;9.95;;;;;;;;;;10053350;28;19960;-62
2022/08/09 02:48:47;;;;;;;10.43;9.43;;;;;;;;;;10062863;28;20048;-61
2022/08/09 02:53:47;;;;;;;12.48;9.30;;;;;;;;;;10056246;28;20471;-62
2022/08/09 02:58:53;;;;;;;15.95;9.52;;;;;;;;;;10047639;28;20061;-62
2022/08/09 03:03:48;;;;;;;11.55;9.07;;;;;;;;;;10045040;28;20053;-62
2022/08/09 03:09:02;;;;;;;13.63;10.35;;;;;;;;;;10052711;28;20057;-62
2022/08/09 03:13:57;;;;;;;10.30;7.85;;;;;;;;;;10044570;28;20084;-62
2022/08/09 03:18:55;;;;;;;10.90;9.85;;;;;;;;;;10054805;28;20453;-62
2022/08/09 03:23:54;;;;;;;16.98;8.70;;;;;;;;;;10050308;28;20060;-62
2022/08/09 03:28:58;;;;;;;12.77;10.05;;;;;;;;;;10063391;28;20053;-62
2022/08/09 03:33:52;;;;;;;14.50;10.27;;;;;;;;;;10054842;28;20045;-63
2022/08/09 03:38:48;;;;;;;12.00;10.70;;;;;;;;;;10055544;28;20129;-62
2022/08/09 03:43:43;;;;;;;10.98;9.88;;;;;;;;;;10061650;28;20092;-63
2022/08/09 03:48:58;;;;;;;13.27;10.55;;;;;;;;;;10055579;28;20499;-62
2022/08/09 03:54:00;;;;;;;11.27;9.77;;;;;;;;;;10054348;28;20049;-61
2022/08/09 03:58:55;;;;;;;10.23;9.27;;;;;;;;;;10049893;28;20128;-62
2022/08/09 04:03:51;;;;;;;10.30;9.40;;;;;;;;;;10053195;28;20474;-62
2022/08/09 04:08:54;;;;;;;10.95;10.00;;;;;;;;;;10051427;28;20581;-62
2022/08/09 04:13:48;;;;;;;9.68;8.77;;;;;;;;;;10052813;28;20050;-62
2022/08/09 04:19:02;;;;;;;10.15;9.23;;;;;;;;;;10057800;28;20442;-62
2022/08/09 04:24:03;;;;;;;10.43;9.27;;;;;;;;;;10048900;28;20049;-62
2022/08/09 04:28:57;;;;;;;10.23;9.30;;;;;;;;;;10054987;28;20049;-62
2022/08/09 04:34:01;;;;;;;12.23;9.88;;;;;;;;;;10055299;28;20052;-63
2022/08/09 04:38:58;;;;;;;14.93;9.48;;;;;;;;;;10058043;28;20060;-62
2022/08/09 04:43:53;;;;;;;9.32;8.45;;;;;;;;;;10056943;28;20502;-63
2022/08/09 04:49:01;;;;;;;16.95;8.88;;;;;;;;;;10055516;28;20045;-62
2022/08/09 04:53:57;;;;;;;16.83;10.27;;;;;;;;;;10052696;28;20083;-62
2022/08/09 04:58:52;;;;;;;21.67;11.43;;;;;;;;;;10056943;28;20426;-63
2022/08/09 05:03:47;;;;;;;10.07;9.15;;;;;;;;;;10048677;28;20056;-62
2022/08/09 05:08:50;;;;;;;11.00;10.10;;;;;;;;;;10051523;28;20478;-66
2022/08/09 05:13:52;;;;;;;12.35;10.25;;;;;;;;;;10051648;28;20072;-62
2022/08/09 05:18:47;;;;;;;11.48;9.93;;;;;;;;;;10052492;28;20045;-63
2022/08/09 05:23:51;;;;;;;11.52;10.15;;;;;;;;;;10039100;28;20061;-63
2022/08/09 05:28:55;;;;;;;12.07;10.77;;;;;;;;;;10053887;28;20049;-62
2022/08/09 05:33:49;;;;;;;17.15;10.48;;;;;;;;;;10033523;28;20392;-62
2022/08/09 05:38:43;;;;;;;12.63;10.85;;;;;;;;;;10054100;28;20077;-62
2022/08/09 05:43:38;;;;;;;13.05;11.55;;;;;;;;;;10042427;28;20072;-67
2022/08/09 05:48:36;;;;;;;12.90;11.60;;;;;;;;;;10038486;28;20458;-67
2022/08/09 05:53:32;;;;;;;16.92;11.68;;;;;;;;;;10031663;28;20056;-66
2022/08/09 05:58:31;;;;;;;12.98;10.45;;;;;;;;;;10032671;28;20038;-67
2022/08/09 06:03:25;;;;;;;13.95;10.07;;;;;;;;;;10039412;28;20128;-68
2022/08/09 06:08:36;;;;;;;11.98;10.43;;;;;;;;;;10042882;28;20077;-66
2022/08/09 06:13:29;;;;;;;11.15;10.00;;;;;;;;;;10048756;28;20498;-64
2022/08/09 06:18:26;;;;;;;14.73;10.60;;;;;;;;;;10043692;28;20508;-66
2022/08/09 06:23:20;;;;;;;15.05;9.98;;;;;;;;;;10053035;28;20096;-66
2022/08/09 06:28:15;;;;;;;11.57;9.73;;;;;;;;;;10057478;28;20067;-67
2022/08/09 06:33:12;;;;;;;12.30;10.20;;;;;;;;;;10052077;28;20056;-65
2022/08/09 06:38:26;;;;;;;10.13;9.10;;;;;;;;;;10051574;28;20052;-63
2022/08/09 06:43:30;;;;;;;13.93;10.32;;;;;;;;;;10053506;28;20045;-64
2022/08/09 06:48:26;;;;;;;12.82;10.55;;;;;;;;;;10044995;28;20149;-65
2022/08/09 06:53:22;;;;;;;12.40;11.10;;;;;;;;;;10053823;28;20049;-63
2022/08/09 06:58:18;;;;;;;14.73;10.75;;;;;;;;;;10042032;28;20052;-68
2022/08/09 07:03:33;;;;;;;13.02;10.65;;;;;;;;;;10044957;28;20046;-69
2022/08/09 07:08:44;;;;;;;14.43;11.00;;;;;;;;;;10054458;28;20091;-69
2022/08/09 07:13:43;;;;;;;10.45;9.18;;;;;;;;;;10036871;28;20053;-67
2022/08/09 07:18:58;;;;;;;11.27;10.18;;;;;;;;;;10029775;28;20180;-69
2022/08/09 07:23:53;;;;;;;12.23;9.07;;;;;;;;;;10028329;28;20491;-69
2022/08/09 07:28:50;;;;;;;20.92;10.65;;;;;;;;;;10037329;28;20056;-66
2022/08/09 07:34:01;;;;;;;16.88;10.35;;;;;;;;;;10040793;28;20068;-66
2022/08/09 07:38:56;;;;;;;17.23;10.15;;;;;;;;;;10046519;28;20096;-68
2022/08/09 07:43:54;;;;;;;13.15;11.32;;;;;;;;;;10045241;28;20053;-67
2022/08/09 07:48:50;;;;;;;13.02;11.70;;;;;;;;;;10051523;28;20052;-69
2022/08/09 07:53:53;;;;;;;19.90;11.57;;;;;;;;;;10052288;28;20049;-69
2022/08/09 07:59:00;;;;;;;18.88;13.10;;;;;;;;;;10055406;28;20069;-68
2022/08/09 08:04:08;;;;;;;11.98;10.88;;;;;;;;;;10058933;28;20054;-66
2022/08/09 08:09:03;;;;;;;17.92;9.93;;;;;;;;;;10041468;28;20780;-63
2022/08/09 08:14:15;;;;;;;11.60;9.65;;;;;;;;;;10037451;28;20046;-61
2022/08/09 08:19:12;;;;;;;21.92;10.65;;;;;;;;;;10043323;28;21096;-69
2022/08/09 08:24:12;;;;;;;9.45;8.20;;;;;;;;;;10046985;28;20137;-63
2022/08/09 08:29:11;;;;;;;12.90;8.13;;;;;;;;;;10043849;28;20722;-66
2022/08/09 08:34:06;;;;;;;;;;;;;;;;;;10040151;28;20449;-64
2022/08/09 08:39:02;;;;;;;9.73;7.43;;;;;;;;;;10060550;28;19983;-69
2022/08/09 08:43:57;;;;;;;12.70;7.82;;;;;;;;;;10039951;28;20541;-68
2022/08/09 08:48:58;;;;;;;28.48;8.00;;;;;;;;;;10038879;28;20490;-62
2022/08/09 08:53:52;;;;;;;19.40;6.65;;;;;;;;;;10043596;28;20498;-66
2022/08/09 08:58:56;;;;;;;10.70;8.02;;;;;;;;;;10044673;28;20076;-64
2022/08/09 09:03:51;;;;;;;22.80;6.78;;;;;;;;;;10037708;28;20155;-64
2022/08/09 09:08:48;;;;;;;16.73;7.32;;;;;;;;;;10044891;28;20049;-67
2022/08/09 09:13:52;;;;;;;22.10;6.40;;;;;;;;;;10047285;28;20061;-64
2022/08/09 09:18:54;;;;;;;8.88;4.78;;;;;;;;;;10054755;28;20058;-64
2022/08/09 09:24:08;;;;;;;6.22;3.75;;;;;;;;;;10046340;28;20495;-63
2022/08/09 09:29:14;;;;;;;;;;;;;;;;;;10049102;28;20510;-60
2022/08/09 09:34:14;;;;;;;15.50;4.03;;;;;;;;;;10051454;28;19932;-61
2022/08/09 09:39:11;;;;;;;4.70;3.67;;;;;;;;;;10057244;28;20710;-60
2022/08/09 09:44:07;;;;;;;6.95;3.95;;;;;;;;;;10043123;28;20085;-58
2022/08/09 09:49:07;;;;;;;6.47;3.47;;;;;;;;;;10055949;28;20664;-58
2022/08/09 09:54:17;;;;;;;4.10;3.67;;;;;;;;;;10054065;28;20052;-59
2022/08/09 09:59:23;;;;;;;3.40;3.03;;;;;;;;;;10058068;28;20052;-59
2022/08/09 10:04:28;;;;;;;4.72;3.63;;;;;;;;;;10048884;28;20061;-60
2022/08/09 10:09:23;;;;;;;4.50;3.50;;;;;;;;;;10048312;28;20044;-61
2022/08/09 10:14:25;;;;;;;4.70;3.88;;;;;;;;;;10063066;28;20319;-61
2022/08/09 10:19:35;;;;;;;5.03;4.18;;;;;;;;;;10060721;28;20148;-61
2022/08/09 10:24:30;;;;;;;4.20;3.78;;;;;;;;;;10063879;28;20049;-62
2022/08/09 10:29:28;;;;;;;9.63;4.43;;;;;;;;;;10061008;28;20053;-62
2022/08/09 10:34:42;;;;;;;4.38;3.97;;;;;;;;;;10050316;28;20049;-62
2022/08/09 10:39:35;;;;;;;5.15;4.60;;;;;;;;;;10060757;28;20060;-63
2022/08/09 10:45:05;;;;;;;6.72;4.15;;;;;;;;;;10058479;28;20060;-62
2022/08/09 10:56:16;;;;;;;6.15;3.67;;;;;;;;;;10045204;28;20593;-63
2022/08/09 11:01:32;;;;;;;3.38;3.08;;;;;;;;;;10043748;28;20045;-63
2022/08/09 11:07:08;;;;;;;3.97;3.38;;;;;;;;;;10046419;28;20048;-63
2022/08/09 11:12:08;;;;;;;;;;;;;;;;;;10054744;28;20049;-61
2022/08/09 11:17:03;;;;;;;3.65;3.05;;;;;;;;;;10055504;28;20378;-62
2022/08/09 11:21:59;;;;;;;4.35;3.95;;;;;;;;;;10035178;28;20069;-64
2022/08/09 11:27:31;;;;;;;8.25;3.70;;;;;;;;;;10048186;28;20042;-64
2022/08/09 11:32:49;;;;;;;6.22;3.70;;;;;;;;;;10044435;28;20052;-65
2022/08/09 11:37:44;;;;;;;6.20;3.60;;;;;;;;;;10058811;28;20064;-65
2022/08/09 11:42:54;;;;;;;3.90;3.50;;;;;;;;;;10052091;28;20049;-64
2022/08/09 11:47:52;;;;;;;9.20;4.45;;;;;;;;;;10052486;28;20128;-65
2022/08/09 11:53:01;;;;;;;4.80;3.20;;;;;;;;;;10052521;28;20038;-65
2022/08/09 11:58:20;;;;;;;3.38;2.72;;;;;;;;;;10050236;28;20049;-65
2022/08/09 12:03:30;;;;;;;6.35;3.13;;;;;;;;;;10056844;28;20061;-65
2022/08/09 12:08:50;;;;;;;6.93;2.65;;;;;;;;;;10059351;28;20034;-64
2022/08/09 12:13:46;;;;;;;5.57;3.10;;;;;;;;;;10057415;28;20076;-64
2022/08/09 12:19:01;;;;;;;6.78;3.00;;;;;;;;;;10050539;28;20049;-65
2022/08/09 12:23:55;;;;;;;4.72;3.35;;;;;;;;;;10044425;28;20524;-65
2022/08/09 12:29:01;;;;;;;4.30;2.88;;;;;;;;;;10047284;28;20129;-65
2022/08/09 12:34:16;;;;;;;7.28;2.80;;;;;;;;;;10047096;28;20037;-66
2022/08/09 12:39:13;;;;;;;6.50;2.67;;;;;;;;;;10060435;28;20041;-65
2022/08/09 12:44:07;;;;;;;4.82;2.83;;;;;;;;;;10058014;28;20064;-64
2022/08/09 12:49:07;;;;;;;9.13;4.55;;;;;;;;;;10059728;28;20057;-73
2022/08/09 12:54:02;;;;;;;5.47;2.93;;;;;;;;;;10061540;28;20068;-65
2022/08/09 12:59:08;;;;;;;5.25;2.75;;;;;;;;;;10060017;28;20056;-62
2022/08/09 13:04:02;;;;;;;6.50;2.97;;;;;;;;;;10061183;28;20069;-62
2022/08/09 13:09:24;;;;;;;4.20;2.65;;;;;;;;;;10063999;28;20498;-66
2022/08/09 13:14:27;;;;;;;7.25;2.92;;;;;;;;;;10063996;28;20053;-68
2022/08/09 13:19:41;;;;;;;5.47;3.28;;;;;;;;;;10051796;28;20395;-67
2022/08/09 13:24:54;;;;;;;3.42;2.78;;;;;;;;;;10050337;28;20105;-67
2022/08/09 13:29:58;;;;;;;3.35;3.05;;;;;;;;;;10036609;28;20460;-67
2022/08/09 13:35:14;;;;;;;3.05;2.63;;;;;;;;;;10035698;28;20053;-67
2022/08/09 13:40:09;;;;;;;8.13;2.60;;;;;;;;;;10046585;28;20053;-66
2022/08/09 13:45:22;;;;;;;3.72;2.45;;;;;;;;;;10059419;28;20502;-66
2022/08/09 13:50:36;;;;;;;6.88;3.95;;;;;;;;;;10055546;28;20041;-67
2022/08/09 13:55:31;;;;;;;2.70;2.33;;;;;;;;;;10054269;28;20069;-67
2022/08/09 14:00:29;;;;;;;2.70;2.00;;;;;;;;;;10062110;28;20061;-67
2022/08/09 14:05:25;;;;;;;2.73;1.87;;;;;;;;;;10064165;28;20387;-66
2022/08/09 14:10:39;;;;;;;3.42;2.33;;;;;;;;;;10059864;28;20048;-66
2022/08/09 14:15:43;;;;;;;2.03;1.67;;;;;;;;;;10050758;28;20041;-67
2022/08/09 14:20:56;;;;;;;4.53;1.90;;;;;;;;;;10058290;28;20065;-70
2022/08/09 14:25:51;;;;;;;3.67;1.53;;;;;;;;;;10053524;28;20489;-68
2022/08/09 14:30:54;;;;;;;3.38;2.33;;;;;;;;;;10064896;28;20370;-70
2022/08/09 14:35:49;;;;;;;4.70;2.25;;;;;;;;;;10065477;28;20049;-69
2022/08/09 14:40:44;;;;;;;4.03;2.15;;;;;;;;;;10063559;28;20049;-67
2022/08/09 14:45:57;;;;;;;2.17;1.98;;;;;;;;;;10059382;28;20045;-70
2022/08/09 14:51:11;;;;;;;2.33;2.13;;;;;;;;;;10065389;28;20048;-70
2022/08/09 14:56:06;;;;;;;4.03;1.92;;;;;;;;;;10057811;28;20086;-68
2022/08/09 15:01:04;;;;;;;6.28;2.05;;;;;;;;;;10054621;28;20414;-67
2022/08/09 15:05:58;;;;;;;6.57;2.42;;;;;;;;;;10064647;28;20061;-65
2022/08/09 15:10:56;;;;;;;3.55;2.10;;;;;;;;;;10064904;28;20578;-70
2022/08/09 15:15:53;;;;;;;2.45;1.92;;;;;;;;;;10064172;28;20038;-64
2022/08/09 15:20:48;;;;;;;5.00;1.90;;;;;;;;;;10064266;28;20103;-64
2022/08/09 15:26:01;;;;;;;3.97;2.03;;;;;;;;;;10052261;28;20470;-68
2022/08/09 15:30:57;;;;;;;3.92;2.05;;;;;;;;;;10059487;28;20103;-70
2022/08/09 15:36:04;;;;;;;4.95;2.40;;;;;;;;;;10062387;28;20483;-68
2022/08/09 15:40:58;;;;;;;2.40;2.15;;;;;;;;;;10061641;28;20440;-71
2022/08/09 15:46:01;;;;;;;4.93;2.30;;;;;;;;;;10064114;28;20130;-67
2022/08/09 15:51:15;;;;;;;3.05;2.38;;;;;;;;;;10063832;28;20125;-69
2022/08/09 15:56:28;;;;;;;3.33;2.20;;;;;;;;;;10059410;28;21876;-67
2022/08/09 16:01:23;;;;;;;3.75;2.15;;;;;;;;;;10050774;28;20391;-66
2022/08/09 16:06:18;;;;;;;7.53;3.00;;;;;;;;;;10059892;28;20049;-66
2022/08/09 16:11:28;;;;;;;3.42;2.35;;;;;;;;;;10061745;28;20160;-66
2022/08/09 16:16:28;;;;;;;4.00;2.50;;;;;;;;;;10062392;28;20056;-67
2022/08/09 16:21:21;;;;;;;2.92;2.45;;;;;;;;;;10062611;28;20033;-63
2022/08/09 16:26:17;;;;;;;3.42;2.55;;;;;;;;;;10062085;28;20049;-62
2022/08/09 16:31:27;;;;;;;4.82;2.90;;;;;;;;;;10058755;28;20061;-63
2022/08/09 16:36:40;;;;;;;7.55;3.88;;;;;;;;;;10058827;28;20065;-62
2022/08/09 16:41:39;;;;;;;5.60;2.88;;;;;;;;;;10058329;28;20139;-62
2022/08/09 16:46:52;;;;;;;7.53;2.53;;;;;;;;;;10056085;28;20574;-63
2022/08/09 16:51:47;;;;;;;3.75;3.35;;;;;;;;;;10058340;28;20473;-63
2022/08/09 16:56:46;;;;;;;7.20;3.17;;;;;;;;;;10058178;28;20074;-62
2022/08/09 17:01:42;;;;;;;3.45;3.03;;;;;;;;;;10058056;28;20398;-65
2022/08/09 17:06:45;;;;;;;4.82;3.40;;;;;;;;;;10060632;28;20061;-65
2022/08/09 17:11:59;;;;;;;4.18;3.60;;;;;;;;;;10058966;28;20065;-64
2022/08/09 17:17:02;;;;;;;6.03;3.40;;;;;;;;;;10059262;28;20051;-65
2022/08/09 17:22:16;;;;;;;3.53;3.22;;;;;;;;;;10059119;28;20049;-64
2022/08/09 17:27:22;;;;;;;;;;;;;;;;;;10063874;28;20056;-70
2022/08/09 17:32:16;;;;;;;4.78;4.03;;;;;;;;;;10060209;28;19936;-65
2022/08/09 17:37:17;;;;;;;7.60;4.10;;;;;;;;;;10061703;28;20096;-65
2022/08/09 17:42:15;;;;;;;4.95;3.45;;;;;;;;;;10058146;28;20136;-67
2022/08/09 17:47:31;;;;;;;5.97;3.78;;;;;;;;;;10061399;28;20509;-66
2022/08/09 17:52:45;;;;;;;4.03;3.60;;;;;;;;;;10059773;28;20449;-66
2022/08/09 17:57:44;;;;;;;5.88;3.47;;;;;;;;;;10067554;28;20049;-65
2022/08/09 18:02:57;;;;;;;8.20;4.50;;;;;;;;;;10069385;28;20120;-66
2022/08/09 18:07:51;;;;;;;4.10;3.67;;;;;;;;;;10071388;28;20056;-66
2022/08/09 18:12:49;;;;;;;5.40;3.85;;;;;;;;;;10072145;28;20054;-66
2022/08/09 18:18:03;;;;;;;4.75;3.58;;;;;;;;;;10071302;28;20049;-66
2022/08/09 18:22:59;;;;;;;5.13;3.85;;;;;;;;;;10071230;28;20100;-66
2022/08/09 18:28:00;;;;;;;4.43;4.03;;;;;;;;;;10071280;28;20053;-66
2022/08/09 18:33:16;;;;;;;5.68;3.70;;;;;;;;;;10070028;28;20056;-66
2022/08/09 18:38:15;;;;;;;5.88;4.50;;;;;;;;;;10069787;28;20053;-66
2022/08/09 18:43:09;;;;;;;11.68;6.47;;;;;;;;;;10068015;28;20119;-66
2022/08/09 18:48:04;;;;;;;17.80;15.07;;;;;;;;;;10067760;28;20061;-65
2022/08/09 18:52:57;;;;;;;12.55;10.15;;;;;;;;;;10068208;28;20038;-67
2022/08/09 18:57:54;;;;;;;14.40;9.20;;;;;;;;;;10067541;28;20049;-66
2022/08/09 19:02:49;;;;;;;7.32;3.95;;;;;;;;;;10067750;28;20038;-66
2022/08/09 19:07:46;;;;;;;4.47;3.53;;;;;;;;;;10066942;28;20103;-66
2022/08/09 19:12:56;;;;;;;6.63;3.90;;;;;;;;;;10067965;28;20111;-66
2022/08/09 19:18:11;;;;;;;6.57;4.22;;;;;;;;;;10067082;28;20555;-66
2022/08/09 19:23:24;;;;;;;9.07;3.35;;;;;;;;;;10067030;28;20049;-66
2022/08/09 19:28:38;;;;;;;6.00;4.28;;;;;;;;;;10065285;28;20042;-66
2022/08/09 19:33:34;;;;;;;;;;;;;;;;;;10067960;28;20493;-66
2022/08/09 19:38:27;;;;;;;4.90;3.83;;;;;;;;;;10067776;28;20301;-66
2022/08/09 19:43:21;;;;;;;5.20;4.60;;;;;;;;;;10067100;28;20057;-67
2022/08/09 19:48:34;;;;;;;6.25;4.10;;;;;;;;;;10061632;28;20111;-66
2022/08/09 19:53:48;;;;;;;5.15;3.55;;;;;;;;;;10063620;28;20059;-66
2022/08/09 19:58:41;;;;;;;7.55;3.88;;;;;;;;;;10067864;28;20094;-66
2022/08/09 20:03:54;;;;;;;7.30;3.90;;;;;;;;;;10059019;28;20080;-67
2022/08/09 20:09:07;;;;;;;5.70;3.50;;;;;;;;;;10064605;28;20071;-66
2022/08/09 20:14:20;;;;;;;9.73;4.95;;;;;;;;;;10062159;28;20052;-66
2022/08/09 20:19:16;;;;;;;6.93;4.05;;;;;;;;;;10060990;28;20076;-66
2022/08/09 20:24:30;;;;;;;6.47;3.88;;;;;;;;;;10059106;28;20133;-66
2022/08/09 20:29:26;;;;;;;8.57;4.32;;;;;;;;;;10059829;28;20058;-65
2022/08/09 20:34:29;;;;;;;9.05;4.28;;;;;;;;;;10059402;28;20064;-67
2022/08/09 20:39:23;;;;;;;36.10;6.43;;;;;;;;;;10066578;28;20052;-66
2022/08/09 20:44:36;;;;;;;8.27;4.72;;;;;;;;;;10066522;28;20100;-65
2022/08/09 20:49:30;;;;;;;6.78;4.80;;;;;;;;;;10062294;28;20464;-66
2022/08/09 20:54:25;;;;;;;5.60;4.15;;;;;;;;;;10056617;28;20059;-67
2022/08/09 20:59:21;;;;;;;7.30;3.85;;;;;;;;;;10059034;28;20146;-67
2022/08/09 21:04:34;;;;;;;5.28;4.70;;;;;;;;;;10058222;28;20141;-71
2022/08/09 21:09:47;;;;;;;6.10;4.80;;;;;;;;;;10056095;28;20034;-67
2022/08/09 21:14:49;;;;;;;12.13;5.53;;;;;;;;;;10054623;28;20068;-65
2022/08/09 21:19:48;;;;;;;10.35;6.13;;;;;;;;;;10057454;28;20056;-68
2022/08/09 21:30:17;;;;;;;8.20;5.75;;;;;;;;;;10058523;28;20057;-69
2022/08/09 21:35:11;;;;;;;7.03;5.95;;;;;;;;;;10060985;28;20046;-68
2022/08/09 21:40:06;;;;;;;10.80;5.90;;;;;;;;;;10061480;28;20614;-68
2022/08/09 21:45:06;;;;;;;6.32;5.68;;;;;;;;;;10061254;28;20046;-68
2022/08/09 21:50:08;;;;;;;6.65;5.95;;;;;;;;;;10058413;28;20391;-67
2022/08/09 21:55:13;;;;;;;6.70;5.32;;;;;;;;;;10063558;28;20540;-67
2022/08/09 22:00:17;;;;;;;8.13;5.63;;;;;;;;;;10054169;28;20045;-68
2022/08/09 22:05:18;;;;;;;7.22;4.95;;;;;;;;;;10054959;28;20168;-68
2022/08/09 22:10:17;;;;;;;14.82;5.78;;;;;;;;;;10053148;28;20132;-66
2022/08/09 22:15:15;;;;;;;8.93;5.22;;;;;;;;;;10061757;28;20076;-69
2022/08/09 22:20:08;;;;;;;6.55;4.93;;;;;;;;;;10049171;28;20072;-68
2022/08/09 22:25:10;;;;;;;9.95;5.03;;;;;;;;;;10049291;28;20077;-68
2022/08/09 22:30:24;;;;;;;5.57;5.03;;;;;;;;;;10050976;28;20041;-66
2022/08/09 22:35:25;;;;;;;6.50;5.60;;;;;;;;;;10051269;28;20049;-67
2022/08/09 22:40:38;;;;;;;8.77;5.82;;;;;;;;;;10048928;28;20049;-66
2022/08/09 22:45:40;;;;;;;12.00;5.38;;;;;;;;;;10054198;28;20053;-67
2022/08/09 22:50:54;;;;;;;6.32;5.57;;;;;;;;;;10052908;28;20069;-67
2022/08/09 22:55:48;;;;;;;11.63;5.28;;;;;;;;;;10051094;28;20091;-67
2022/08/09 23:01:05;;;;;;;8.23;5.13;;;;;;;;;;10060551;28;20065;-67
2022/08/09 23:05:58;;;;;;;11.20;5.63;;;;;;;;;;10059502;28;20069;-70
2022/08/09 23:10:53;;;;;;;7.68;5.75;;;;;;;;;;10062982;28;20168;-68
2022/08/09 23:15:49;;;;;;;;;;;;;;;;;;10064974;28;20128;-71
2022/08/09 23:20:56;;;;;;;11.65;5.88;;;;;;;;;;10063826;28;19927;-70
2022/08/09 23:25:50;;;;;;;7.55;5.20;;;;;;;;;;10062105;28;20474;-68
2022/08/09 23:30:43;;;;;;;14.70;5.85;;;;;;;;;;10062374;28;20045;-69
2022/08/09 23:35:43;;;;;;;10.65;5.45;;;;;;;;;;10061367;28;20088;-68
2022/08/09 23:40:56;;;;;;;10.73;5.72;;;;;;;;;;10064246;28;20041;-76
2022/08/09 23:45:49;;;;;;;7.88;5.15;;;;;;;;;;10064029;28;20045;-78
2022/08/09 23:50:43;;;;;;;8.68;5.80;;;;;;;;;;10060450;28;20107;-76
2022/08/09 23:55:36;;;;;;;6.63;5.45;;;;;;;;;;10057193;28;20081;-73
